Time;durP1;ratioP1;P1;durP2;ratioP2;P2;SDS_P1;SDS_P2;PMS_P1;PMS_P2;Temp;Humidity;BMP_temperature;BMP_pressure;BME280_temperature;BME280_humidity;BME280_pressure;Samples;Min_cycle;Max_cycle;Signal;HPM_P1;HPM_P2
2023/02/23 00:03:10;;;;;;;20.52;10.27;;;4.80;99.90;;;;;;8105413;29;20438;-79
2023/02/23 00:07:10;;;;;;;20.75;10.30;;;4.90;99.90;;;;;;8104119;29;20027;-79
2023/02/23 00:11:11;;;;;;;17.95;9.75;;;4.90;99.90;;;;;;8120502;29;20111;-79
2023/02/23 00:15:12;;;;;;;20.95;10.27;;;5.20;99.90;;;;;;8108401;29;20047;-79
2023/02/23 00:19:12;;;;;;;19.65;10.32;;;5.40;99.90;;;;;;8105346;29;20072;-79
2023/02/23 00:23:13;;;;;;;23.10;10.30;;;5.40;99.90;;;;;;8105936;29;20029;-78
2023/02/23 00:27:18;;;;;;;21.48;9.57;;;5.30;99.90;;;;;;8104602;29;20031;-79
2023/02/23 00:31:24;;;;;;;19.55;9.63;;;5.30;99.90;;;;;;8104420;29;20383;-79
2023/02/23 00:35:25;;;;;;;20.65;9.50;;;5.30;99.90;;;;;;8105754;29;20027;-79
2023/02/23 00:39:27;;;;;;;21.38;10.95;;;5.30;99.90;;;;;;8104478;29;20064;-79
2023/02/23 00:43:28;;;;;;;24.00;10.82;;;5.30;99.90;;;;;;8104385;29;20028;-79
2023/02/23 00:47:28;;;;;;;20.58;10.65;;;5.20;99.90;;;;;;8104130;29;20056;-80
2023/02/23 00:51:29;;;;;;;21.63;9.70;;;5.10;99.90;;;;;;8105520;29;20020;-79
2023/02/23 00:55:30;;;;;;;19.35;9.77;;;5.00;99.90;;;;;;8104139;29;20036;-79
2023/02/23 00:59:32;;;;;;;21.98;10.32;;;5.00;99.90;;;;;;8104000;29;20056;-79
2023/02/23 01:03:32;;;;;;;19.25;10.93;;;5.00;99.90;;;;;;8103412;29;20486;-79
2023/02/23 01:07:33;;;;;;;22.55;10.32;;;5.00;99.90;;;;;;8104233;29;20032;-81
2023/02/23 01:11:34;;;;;;;23.48;11.50;;;5.20;99.90;;;;;;8103001;29;20153;-79
2023/02/23 01:15:41;;;;;;;24.67;10.63;;;5.40;99.90;;;;;;8103187;29;20402;-80
2023/02/23 01:19:41;;;;;;;21.38;10.23;;;5.60;99.90;;;;;;8105271;29;20032;-80
2023/02/23 01:23:42;;;;;;;21.55;10.10;;;5.60;99.90;;;;;;8103996;29;20498;-79
2023/02/23 01:27:43;;;;;;;19.67;10.55;;;5.70;99.90;;;;;;8105772;29;20025;-80
2023/02/23 01:31:46;;;;;;;20.60;10.45;;;5.80;99.90;;;;;;8105864;29;20119;-80
2023/02/23 01:35:58;;;;;;;19.33;10.82;;;5.90;99.90;;;;;;8106459;29;20055;-80
2023/02/23 01:39:59;;;;;;;22.83;11.10;;;5.80;99.90;;;;;;8105807;29;20025;-80
2023/02/23 01:44:02;;;;;;;21.00;9.75;;;5.60;99.90;;;;;;8104434;29;20028;-80
2023/02/23 01:48:22;;;;;;;19.80;10.88;;;5.60;99.90;;;;;;8107136;29;20045;-80
2023/02/23 01:52:22;;;;;;;20.63;9.95;;;5.70;99.90;;;;;;8105772;29;20579;-80
2023/02/23 01:56:30;;;;;;;18.40;10.05;;;5.80;99.90;;;;;;8107666;29;20033;-80
2023/02/23 02:00:35;;;;;;;20.35;9.55;;;5.90;99.90;;;;;;8106970;29;20028;-79
2023/02/23 02:04:43;;;;;;;19.73;10.38;;;5.80;99.90;;;;;;8107238;29;20119;-79
2023/02/23 02:08:53;;;;;;;19.05;10.05;;;5.80;99.90;;;;;;8107892;29;20056;-80
2023/02/23 02:12:56;;;;;;;19.13;10.02;;;5.70;99.90;;;;;;8125132;29;20022;-80
2023/02/23 02:17:08;;;;;;;21.23;9.80;;;5.60;99.90;;;;;;8104499;29;20068;-80
2023/02/23 02:21:23;;;;;;;24.30;10.82;;;5.80;99.90;;;;;;8104970;29;20021;-80
2023/02/23 02:25:49;;;;;;;20.42;10.30;;;5.70;99.90;;;;;;8103490;29;20033;-79
2023/02/23 02:30:21;;;;;;;18.00;10.10;;;5.50;99.90;;;;;;8122787;29;20161;-79
2023/02/23 02:34:41;;;;;;;19.85;10.63;;;5.60;99.90;;;;;;8108686;29;20054;-80
2023/02/23 02:38:49;;;;;;;23.92;11.38;;;5.60;99.90;;;;;;8124088;29;20187;-80
2023/02/23 02:43:20;;;;;;;19.20;9.98;;;5.50;99.90;;;;;;8109040;29;20160;-81
2023/02/23 02:47:43;;;;;;;22.08;10.75;;;5.70;99.90;;;;;;8108367;29;20448;-81
2023/02/23 02:52:09;;;;;;;21.55;9.65;;;5.90;99.90;;;;;;8107397;29;20040;-81
2023/02/23 02:56:11;;;;;;;24.88;12.13;;;6.10;99.90;;;;;;8109329;29;20033;-80
2023/02/23 04:20:32;;;;;;;24.48;13.13;;;7.50;99.90;;;;;;8107006;29;20084;-80
2023/02/23 04:24:32;;;;;;;23.15;11.48;;;7.60;99.90;;;;;;8106367;29;20465;-80
2023/02/23 04:28:34;;;;;;;26.02;12.32;;;7.40;99.90;;;;;;8126375;29;20031;-80
2023/02/23 04:32:34;;;;;;;22.63;11.77;;;7.40;99.90;;;;;;8128983;29;20033;-80
2023/02/23 04:36:35;;;;;;;27.45;13.18;;;7.40;99.90;;;;;;8124757;29;20025;-80
2023/02/23 04:40:35;;;;;;;24.77;11.88;;;7.60;99.90;;;;;;8108376;29;20020;-80
2023/02/23 04:44:36;;;;;;;23.67;12.30;;;7.50;99.90;;;;;;8107139;29;20501;-80
2023/02/23 04:48:36;;;;;;;24.95;12.43;;;7.40;99.90;;;;;;8106315;29;20537;-80
2023/02/23 04:52:37;;;;;;;21.88;11.10;;;7.50;99.90;;;;;;8105509;29;20029;-79
2023/02/23 04:56:38;;;;;;;26.90;11.77;;;7.40;99.90;;;;;;8105512;29;20513;-80
2023/02/23 05:00:39;;;;;;;18.48;10.90;;;7.50;99.90;;;;;;8106454;29;20032;-80
2023/02/23 05:04:40;;;;;;;25.52;11.88;;;7.60;99.90;;;;;;8105548;29;20032;-80
2023/02/23 05:08:41;;;;;;;23.20;11.70;;;7.70;99.90;;;;;;8106081;29;20402;-79
2023/02/23 05:12:41;;;;;;;23.23;11.80;;;7.60;99.90;;;;;;8105271;29;20021;-80
2023/02/23 05:16:42;;;;;;;21.15;10.73;;;7.60;99.90;;;;;;8121899;29;20024;-80
2023/02/23 05:20:46;;;;;;;25.15;11.30;;;7.60;99.90;;;;;;8105424;29;20049;-80
2023/02/23 05:24:47;;;;;;;25.48;10.93;;;7.50;99.90;;;;;;8106149;29;20115;-82
2023/02/23 05:28:48;;;;;;;20.50;10.85;;;7.70;99.90;;;;;;8104355;29;20447;-79
2023/02/23 05:33:04;;;;;;;18.95;10.73;;;7.50;99.90;;;;;;8171673;23;20043;-80
2023/02/23 05:37:05;;;;;;;22.23;10.75;;;7.50;99.90;;;;;;8167311;29;20403;-78
2023/02/23 05:41:07;;;;;;;23.17;11.20;;;7.50;99.90;;;;;;8165933;29;20030;-80
2023/02/23 05:45:08;;;;;;;22.05;11.73;;;7.40;99.90;;;;;;8144681;29;20028;-78
2023/02/23 05:49:09;;;;;;;24.02;10.90;;;7.50;99.90;;;;;;8148517;29;20055;-78
2023/02/23 05:53:10;;;;;;;22.08;10.93;;;7.60;99.90;;;;;;8135132;29;20088;-80
2023/02/23 05:57:10;;;;;;;18.73;10.20;;;7.70;99.90;;;;;;8130752;29;20177;-80
2023/02/23 06:01:11;;;;;;;20.67;11.40;;;7.40;99.90;;;;;;8128509;29;20024;-80
2023/02/23 06:05:12;;;;;;;23.60;11.40;;;7.40;99.90;;;;;;8136326;29;20032;-80
2023/02/23 06:09:12;;;;;;;22.38;11.52;;;7.40;99.90;;;;;;8140838;29;20035;-80
2023/02/23 06:13:14;;;;;;;19.73;10.35;;;7.30;99.90;;;;;;8142219;29;20036;-79
2023/02/23 06:17:14;;;;;;;19.90;11.02;;;7.30;99.90;;;;;;8140294;29;20079;-80
2023/02/23 06:21:15;;;;;;;20.13;10.25;;;7.40;99.90;;;;;;8140629;29;20028;-79
2023/02/23 06:25:15;;;;;;;21.25;11.43;;;7.30;99.90;;;;;;8140459;29;20485;-80
2023/02/23 06:29:16;;;;;;;18.98;10.93;;;7.30;99.90;;;;;;8140580;29;20033;-80
2023/02/23 06:33:17;;;;;;;21.48;10.15;;;7.30;99.90;;;;;;8141632;29;20047;-79
2023/02/23 06:37:17;;;;;;;18.58;10.30;;;7.30;99.90;;;;;;8136317;29;20028;-80
2023/02/23 06:41:18;;;;;;;17.17;8.90;;;7.50;99.90;;;;;;8135382;29;20490;-79
2023/02/23 06:45:18;;;;;;;20.45;10.85;;;7.50;99.90;;;;;;8140966;29;20052;-80
2023/02/23 06:49:19;;;;;;;18.80;10.30;;;7.50;99.90;;;;;;8136593;29;20505;-79
2023/02/23 06:53:20;;;;;;;21.95;9.60;;;7.50;99.90;;;;;;8135253;29;20413;-79
2023/02/23 06:57:21;;;;;;;16.77;9.52;;;7.50;99.90;;;;;;8127039;29;20028;-80
2023/02/23 07:01:21;;;;;;;17.67;9.55;;;7.70;99.90;;;;;;8138534;29;20033;-79
2023/02/23 07:05:22;;;;;;;20.67;10.43;;;7.80;99.90;;;;;;8139083;29;20172;-79
2023/02/23 07:09:23;;;;;;;18.48;10.32;;;7.70;99.90;;;;;;8138773;29;20079;-79
2023/02/23 07:13:23;;;;;;;20.33;10.63;;;7.90;99.90;;;;;;8139888;29;20135;-79
2023/02/23 07:17:24;;;;;;;20.63;10.48;;;7.90;99.90;;;;;;8138924;29;20095;-79
2023/02/23 07:21:24;;;;;;;16.60;9.52;;;8.00;99.90;;;;;;8138489;29;20032;-79
2023/02/23 07:25:26;;;;;;;17.73;10.05;;;8.00;99.90;;;;;;8132918;29;20119;-79
2023/02/23 07:29:27;;;;;;;17.95;9.55;;;8.10;99.90;;;;;;8133854;29;20063;-80
2023/02/23 07:33:27;;;;;;;18.90;10.30;;;8.10;99.90;;;;;;8134527;29;20040;-79
2023/02/23 07:37:28;;;;;;;16.98;10.52;;;8.20;99.90;;;;;;8138994;29;20032;-80
2023/02/23 07:41:28;;;;;;;18.20;9.68;;;8.30;99.90;;;;;;8139290;29;20032;-79
2023/02/23 07:45:29;;;;;;;16.00;9.45;;;8.20;99.90;;;;;;8139232;29;20043;-79
2023/02/23 07:49:30;;;;;;;17.35;9.88;;;8.10;99.90;;;;;;8140005;29;20020;-80
2023/02/23 07:53:30;;;;;;;20.35;10.55;;;8.20;99.90;;;;;;8139795;29;20021;-80
2023/02/23 07:57:32;;;;;;;18.02;9.68;;;8.20;99.90;;;;;;8147357;29;20080;-79
2023/02/23 08:01:32;;;;;;;19.42;9.73;;;8.40;99.90;;;;;;8141503;29;20566;-80
2023/02/23 08:05:33;;;;;;;19.58;10.13;;;8.60;99.90;;;;;;8137622;29;20026;-80
2023/02/23 08:09:34;;;;;;;17.05;9.50;;;8.70;99.90;;;;;;8138373;29;20016;-80
2023/02/23 08:13:36;;;;;;;17.17;8.95;;;8.80;99.90;;;;;;8137919;29;20056;-78
2023/02/23 08:17:37;;;;;;;18.48;9.43;;;8.90;99.90;;;;;;8136406;29;20020;-80
2023/02/23 08:21:38;;;;;;;16.60;8.88;;;9.20;99.90;;;;;;8137772;29;20102;-80
2023/02/23 08:25:38;;;;;;;14.82;8.73;;;9.60;99.90;;;;;;8136592;29;20043;-81
2023/02/23 08:29:39;;;;;;;14.05;8.65;;;9.90;99.90;;;;;;8136353;29;20051;-80
2023/02/23 08:33:39;;;;;;;13.27;7.93;;;10.10;99.90;;;;;;8136614;29;20032;-80
2023/02/23 08:37:40;;;;;;;14.90;8.65;;;10.20;99.90;;;;;;8136443;29;20511;-80
2023/02/23 08:41:41;;;;;;;11.25;6.20;;;10.20;99.90;;;;;;8136794;29;20028;-80
2023/02/23 08:45:42;;;;;;;17.73;8.77;;;10.40;99.90;;;;;;8137261;29;20485;-80
2023/02/23 08:49:42;;;;;;;13.95;7.32;;;10.60;99.90;;;;;;8137425;29;20032;-80
2023/02/23 08:53:43;;;;;;;13.07;7.75;;;10.80;99.90;;;;;;8135647;29;20035;-81
2023/02/23 08:57:43;;;;;;;15.35;8.18;;;11.00;99.90;;;;;;8136374;29;20082;-80
2023/02/23 09:01:44;;;;;;;15.02;7.97;;;11.20;99.90;;;;;;8133873;29;20039;-80
2023/02/23 09:05:44;;;;;;;16.33;7.43;;;11.20;99.90;;;;;;8135986;29;20505;-80
2023/02/23 09:09:45;;;;;;;16.33;7.85;;;11.30;99.90;;;;;;8135190;29;20032;-80
2023/02/23 09:13:46;;;;;;;14.43;7.78;;;11.10;99.90;;;;;;8135200;29;20032;-80
2023/02/23 09:17:47;;;;;;;15.30;8.20;;;11.30;99.90;;;;;;8136096;29;20083;-80
2023/02/23 09:21:47;;;;;;;14.85;7.50;;;11.50;99.90;;;;;;8134916;29;20163;-80
2023/02/23 09:25:48;;;;;;;10.75;7.10;;;11.40;99.90;;;;;;8135084;29;20623;-79
2023/02/23 09:29:48;;;;;;;13.70;7.63;;;11.80;99.90;;;;;;8136075;29;20028;-80
2023/02/23 09:33:50;;;;;;;10.20;6.07;;;11.90;99.90;;;;;;8134454;29;20394;-80
2023/02/23 09:37:53;;;;;;;13.65;7.03;;;11.90;99.90;;;;;;8134606;29;20036;-80
2023/02/23 09:42:32;;;;;;;14.75;7.18;;;11.80;99.90;;;;;;8139369;29;20730;-79
2023/02/23 09:46:37;;;;;;;13.13;7.22;;;11.90;99.90;;;;;;8140309;29;20047;-80
2023/02/23 09:50:40;;;;;;;14.77;7.65;;;12.20;99.90;;;;;;8140671;29;20021;-80
2023/02/23 09:54:42;;;;;;;13.95;7.32;;;12.30;99.90;;;;;;8140486;29;20473;-80
2023/02/23 09:58:43;;;;;;;12.93;7.20;;;12.30;99.90;;;;;;8141491;29;20020;-79
2023/02/23 10:03:03;;;;;;;12.50;7.65;;;12.40;99.90;;;;;;8139823;29;20035;-80
2023/02/23 10:07:37;;;;;;;11.75;7.13;;;12.20;99.90;;;;;;8140218;29;20091;-80
2023/02/23 10:12:06;;;;;;;12.65;7.57;;;12.40;99.90;;;;;;8140457;29;20024;-80
2023/02/23 10:16:41;;;;;;;13.45;8.27;;;12.60;99.90;;;;;;8143304;29;20028;-81
2023/02/23 10:20:47;;;;;;;12.80;7.65;;;12.70;99.90;;;;;;8143275;29;20034;-81
2023/02/23 10:25:05;;;;;;;15.23;7.25;;;13.10;99.90;;;;;;8139829;29;20028;-81
2023/02/23 10:29:21;;;;;;;12.15;6.85;;;13.60;99.90;;;;;;8141727;29;20041;-80
2023/02/23 10:33:39;;;;;;;12.68;7.43;;;13.80;99.90;;;;;;8138585;29;20091;-80
2023/02/23 10:37:40;;;;;;;12.77;6.65;;;13.50;99.90;;;;;;8135887;29;20518;-81
2023/02/23 10:41:41;;;;;;;11.88;6.90;;;13.30;99.90;;;;;;8139197;29;20020;-81
2023/02/23 10:45:48;;;;;;;13.65;6.55;;;13.50;99.90;;;;;;8139483;29;20527;-81
2023/02/23 10:49:51;;;;;;;10.88;6.68;;;14.40;99.90;;;;;;8139653;29;20021;-80
2023/02/23 10:53:52;;;;;;;10.35;5.30;;;14.70;99.90;;;;;;8138923;29;20085;-81
2023/02/23 10:58:08;;;;;;;12.95;6.13;;;15.60;99.90;;;;;;8139007;29;20016;-81
2023/02/23 11:02:22;;;;;;;10.07;5.55;;;15.90;99.90;;;;;;8138184;29;20609;-80
2023/02/23 11:06:38;;;;;;;8.90;4.40;;;16.10;99.90;;;;;;8138784;29;20627;-80
2023/02/23 11:10:39;;;;;;;10.00;4.95;;;16.90;99.90;;;;;;8134328;29;20087;-81
2023/02/23 11:14:40;;;;;;;9.65;4.45;;;16.70;99.90;;;;;;8137988;29;20020;-79
2023/02/23 11:19:01;;;;;;;8.57;4.28;;;16.40;99.90;;;;;;8137788;29;20024;-80
2023/02/23 11:23:21;;;;;;;8.43;3.92;;;16.50;99.90;;;;;;8138249;29;20048;-80
2023/02/23 11:27:24;;;;;;;7.78;4.15;;;16.40;99.90;;;;;;8136344;29;20512;-81
2023/02/23 11:31:34;;;;;;;8.90;4.82;;;16.30;99.90;;;;;;8139560;29;20020;-80
2023/02/23 11:35:35;;;;;;;7.20;4.23;;;16.30;99.90;;;;;;8137547;29;20046;-80
2023/02/23 11:39:37;;;;;;;7.93;4.35;;;17.00;99.90;;;;;;8133444;29;20038;-80
2023/02/23 11:43:48;;;;;;;7.78;2.90;;;18.50;99.90;;;;;;8137330;29;20059;-81
2023/02/23 11:47:55;;;;;;;8.77;3.58;;;18.70;99.90;;;;;;8136968;29;20397;-79
2023/02/23 11:51:58;;;;;;;6.32;3.22;;;17.80;99.90;;;;;;8137203;29;20040;-81
2023/02/23 11:56:06;;;;;;;8.18;4.13;;;17.50;99.90;;;;;;8137132;29;20580;-79
2023/02/23 12:00:21;;;;;;;6.50;2.35;;;17.40;99.90;;;;;;8135974;29;20197;-80
2023/02/23 12:04:39;;;;;;;8.25;3.47;;;18.00;99.90;;;;;;8133048;29;20064;-81
2023/02/23 12:08:45;;;;;;;6.53;2.92;;;19.90;99.90;;;;;;8132051;29;20411;-81
2023/02/23 12:12:59;;;;;;;6.82;3.10;;;20.70;99.90;;;;;;8136654;29;20031;-81
2023/02/23 12:17:11;;;;;;;6.45;2.90;;;21.00;99.90;;;;;;8131848;29;20055;-81
2023/02/23 12:21:33;;;;;;;8.60;3.45;;;19.10;99.90;;;;;;8135126;29;20020;-80
2023/02/23 12:25:41;;;;;;;5.30;3.10;;;18.20;99.90;;;;;;8132636;29;20113;-79
2023/02/23 12:29:54;;;;;;;6.32;3.03;;;18.00;99.90;;;;;;8136384;29;20020;-81
2023/02/23 12:34:00;;;;;;;9.60;2.97;;;18.90;99.90;;;;;;8135842;29;20032;-80
2023/02/23 12:38:29;;;;;;;6.50;2.72;;;19.80;99.90;;;;;;8135813;29;20031;-80
2023/02/23 12:42:39;;;;;;;7.80;2.78;;;20.90;99.90;;;;;;8135002;29;20248;-81
2023/02/23 12:46:48;;;;;;;6.82;2.88;;;20.30;99.90;;;;;;8130615;29;20092;-81
2023/02/23 12:50:52;;;;;;;5.25;3.15;;;19.40;99.90;;;;;;8136461;29;20095;-81
2023/02/23 12:54:52;;;;;;;4.20;2.75;;;19.40;99.90;;;;;;8137454;29;20031;-80
2023/02/23 12:59:13;;;;;;;7.10;3.20;;;18.60;99.90;;;;;;8135102;29;20390;-80
2023/02/23 13:03:44;;;;;;;6.18;3.80;;;17.90;99.90;;;;;;8135817;29;20055;-81
2023/02/23 13:08:22;;;;;;;7.13;3.00;;;17.60;99.90;;;;;;8136627;29;20039;-81
2023/02/23 13:12:39;;;;;;;4.50;2.80;;;17.70;99.90;;;;;;8137682;29;20062;-80
2023/02/23 13:16:46;;;;;;;6.93;3.30;;;17.70;99.90;;;;;;8137280;29;20021;-81
2023/02/23 13:20:54;;;;;;;5.05;3.38;;;17.50;99.90;;;;;;8142242;29;20024;-80
2023/02/23 13:25:00;;;;;;;7.15;3.40;;;17.40;99.90;;;;;;8139802;29;20032;-80
2023/02/23 13:29:19;;;;;;;8.18;3.45;;;16.70;99.90;;;;;;8147482;29;20500;-80
2023/02/23 13:33:34;;;;;;;9.85;3.75;;;16.20;99.90;;;;;;8135139;29;20070;-80
2023/02/23 13:37:53;;;;;;;5.80;3.20;;;16.20;99.90;;;;;;8134176;29;20049;-80
2023/02/23 13:42:15;;;;;;;8.13;3.22;;;16.20;99.90;;;;;;8134734;29;20566;-79
2023/02/23 13:46:44;;;;;;;7.53;3.25;;;16.10;99.90;;;;;;8131473;29;20028;-79
2023/02/23 13:50:50;;;;;;;5.32;3.03;;;16.30;99.90;;;;;;8131287;29;20024;-78
2023/02/23 13:54:57;;;;;;;6.18;3.15;;;16.70;99.90;;;;;;8137040;29;20111;-79
2023/02/23 13:59:10;;;;;;;7.30;3.45;;;16.80;99.90;;;;;;8134802;29;20080;-79
2023/02/23 14:03:25;;;;;;;7.00;2.97;;;16.70;99.90;;;;;;8130926;29;20036;-78
2023/02/23 14:07:30;;;;;;;5.60;3.10;;;16.40;99.90;;;;;;8134909;29;20489;-79
2023/02/23 14:11:39;;;;;;;5.75;2.40;;;16.00;99.90;;;;;;8134238;29;20028;-79
2023/02/23 14:15:52;;;;;;;8.73;3.25;;;15.50;99.90;;;;;;8129697;29;20076;-79
2023/02/23 14:20:41;;;;;;;6.07;3.22;;;15.10;99.90;;;;;;8135230;29;20127;-79
2023/02/23 14:24:41;;;;;;;6.07;2.85;;;14.90;99.90;;;;;;8107841;29;20051;-78
2023/02/23 14:29:07;;;;;;;8.75;3.17;;;14.40;99.90;;;;;;8149821;29;20020;-79
2023/02/23 14:33:48;;;;;;;6.05;2.78;;;14.20;99.90;;;;;;8140804;29;20028;-77
2023/02/23 14:37:58;;;;;;;4.90;3.30;;;15.00;99.90;;;;;;8136738;29;20552;-79
2023/02/23 14:41:59;;;;;;;7.07;3.45;;;15.50;99.90;;;;;;8140693;29;20032;-79
2023/02/23 14:46:04;;;;;;;4.57;2.85;;;14.30;99.90;;;;;;8137933;29;20036;-79
2023/02/23 14:50:14;;;;;;;7.15;3.30;;;13.60;99.90;;;;;;8139026;29;20054;-79
2023/02/23 14:54:32;;;;;;;6.57;3.30;;;13.90;99.90;;;;;;8138678;29;20035;-79
2023/02/23 14:58:32;;;;;;;6.57;3.25;;;14.50;99.90;;;;;;8137914;29;20070;-79
2023/02/23 15:02:33;;;;;;;5.65;3.53;;;14.30;99.90;;;;;;8137915;29;20801;-80
2023/02/23 15:06:35;;;;;;;7.60;4.05;;;14.00;99.90;;;;;;8137307;29;20084;-79
2023/02/23 15:10:39;;;;;;;8.70;3.55;;;14.00;99.90;;;;;;8139713;29;20020;-79
2023/02/23 15:14:40;;;;;;;9.15;4.47;;;14.00;99.90;;;;;;8135482;29;20024;-79
2023/02/23 15:19:28;;;;;;;6.45;3.47;;;13.60;99.90;;;;;;8139809;29;20099;-80
2023/02/23 15:23:36;;;;;;;8.98;3.40;;;13.60;99.90;;;;;;8137607;29;20036;-79
2023/02/23 15:27:41;;;;;;;7.30;3.70;;;13.80;99.90;;;;;;8137716;29;20017;-78
2023/02/23 15:31:50;;;;;;;4.88;3.28;;;13.80;99.90;;;;;;8135349;29;20099;-79
2023/02/23 15:36:04;;;;;;;7.18;4.03;;;13.60;99.90;;;;;;8137975;29;20145;-79
2023/02/23 15:40:15;;;;;;;7.50;3.38;;;13.30;99.90;;;;;;8138426;29;20490;-79
2023/02/23 15:44:31;;;;;;;10.57;3.85;;;13.10;99.90;;;;;;8134230;29;20032;-79
2023/02/23 15:48:45;;;;;;;6.68;3.97;;;12.80;99.90;;;;;;8134290;29;20409;-79
2023/02/23 15:52:52;;;;;;;7.32;3.95;;;12.60;99.90;;;;;;8134149;29;20374;-80
2023/02/23 15:57:01;;;;;;;7.28;3.88;;;12.50;99.90;;;;;;8137213;29;20039;-79
2023/02/23 16:01:10;;;;;;;8.70;3.70;;;12.50;99.90;;;;;;8136323;29;20020;-80
2023/02/23 16:05:37;;;;;;;10.70;4.60;;;12.40;99.90;;;;;;8138833;29;20028;-80
2023/02/23 16:09:38;;;;;;;9.38;4.07;;;12.20;99.90;;;;;;8133078;29;20063;-79
2023/02/23 16:13:44;;;;;;;6.40;2.80;;;12.10;99.90;;;;;;8135325;29;20359;-79
2023/02/23 16:17:47;;;;;;;7.18;2.90;;;12.10;99.90;;;;;;8135053;29;20130;-79
2023/02/23 16:21:55;;;;;;;5.68;2.30;;;11.60;99.90;;;;;;8135736;29;20028;-79
2023/02/23 16:26:00;;;;;;;6.57;2.50;;;11.10;99.90;;;;;;8134951;29;20031;-79
2023/02/23 16:30:22;;;;;;;6.90;3.10;;;10.80;99.90;;;;;;8139573;29;20023;-79
2023/02/23 16:34:30;;;;;;;7.07;3.28;;;10.50;99.90;;;;;;8132949;29;20047;-79
2023/02/23 16:38:58;;;;;;;5.68;2.72;;;10.30;99.90;;;;;;8134706;29;20043;-79
2023/02/23 16:42:58;;;;;;;7.53;3.00;;;10.10;99.90;;;;;;8132557;29;20560;-78
2023/02/23 16:47:02;;;;;;;5.47;2.80;;;9.90;99.90;;;;;;8133982;29;20035;-79
2023/02/23 16:51:07;;;;;;;4.75;2.70;;;9.60;99.90;;;;;;8135634;29;20673;-78
2023/02/23 16:55:13;;;;;;;7.15;2.80;;;9.50;99.90;;;;;;8134784;29;20638;-79
2023/02/23 16:59:16;;;;;;;5.05;2.05;;;9.00;99.90;;;;;;8133099;29;20032;-79
2023/02/23 17:03:25;;;;;;;3.33;2.08;;;8.70;99.90;;;;;;8134958;29;20028;-79
2023/02/23 17:07:26;;;;;;;6.47;2.47;;;8.80;99.90;;;;;;8135137;29;20032;-79
2023/02/23 17:11:27;;;;;;;4.03;2.38;;;8.70;99.90;;;;;;8135720;29;20056;-79
2023/02/23 17:15:32;;;;;;;5.60;3.08;;;8.60;99.90;;;;;;8134838;29;20038;-79
2023/02/23 17:19:33;;;;;;;3.97;2.10;;;8.20;99.90;;;;;;8135650;29;20028;-80
2023/02/23 17:23:47;;;;;;;4.35;2.15;;;7.70;99.90;;;;;;8134743;29;20115;-80
2023/02/23 17:27:47;;;;;;;3.97;2.10;;;7.50;99.90;;;;;;8131725;29;20024;-80
2023/02/23 17:31:48;;;;;;;3.58;2.03;;;7.30;99.90;;;;;;8135843;29;20131;-80
2023/02/23 17:35:49;;;;;;;3.13;1.73;;;7.30;99.90;;;;;;8134269;29;20123;-80
2023/02/23 17:39:50;;;;;;;9.30;4.72;;;7.10;99.90;;;;;;8135767;29;20055;-80
2023/02/23 17:43:50;;;;;;;6.03;2.97;;;6.80;99.90;;;;;;8134726;29;20028;-80
2023/02/23 17:47:51;;;;;;;5.93;3.05;;;6.70;99.90;;;;;;8134997;29;20042;-79
2023/02/23 17:51:52;;;;;;;14.73;5.00;;;6.50;99.90;;;;;;8135239;29;20044;-79
2023/02/23 17:55:53;;;;;;;11.60;5.95;;;6.50;99.90;;;;;;8137331;29;20056;-80
2023/02/23 17:59:53;;;;;;;10.23;5.32;;;6.50;99.90;;;;;;8134105;29;20052;-79
2023/02/23 18:03:57;;;;;;;8.98;5.47;;;6.60;99.90;;;;;;8139777;29;20043;-80
2023/02/23 18:07:57;;;;;;;9.95;5.43;;;6.70;99.90;;;;;;8144517;29;20126;-79
2023/02/23 18:11:58;;;;;;;6.25;3.53;;;6.70;99.90;;;;;;8143651;29;20035;-79
2023/02/23 18:16:10;;;;;;;8.80;3.90;;;6.70;99.90;;;;;;8139654;29;20039;-79
2023/02/23 18:20:13;;;;;;;10.40;4.78;;;7.00;99.90;;;;;;8138069;29;20040;-80
2023/02/23 18:24:14;;;;;;;11.88;5.18;;;6.90;99.90;;;;;;8138828;29;20047;-79
2023/02/23 18:28:16;;;;;;;10.52;4.20;;;7.20;99.90;;;;;;8139654;29;20043;-80
2023/02/23 18:32:17;;;;;;;16.42;5.28;;;7.50;99.90;;;;;;8139046;29;20024;-79
2023/02/23 18:36:26;;;;;;;7.95;3.60;;;7.70;99.90;;;;;;8136715;29;20409;-79
2023/02/23 18:40:27;;;;;;;5.82;3.13;;;7.90;99.90;;;;;;8122589;29;20120;-78
2023/02/23 18:44:27;;;;;;;4.60;2.47;;;8.10;99.90;;;;;;8148044;29;20659;-79
2023/02/23 18:48:28;;;;;;;4.75;1.95;;;8.10;99.90;;;;;;8131498;29;20028;-79
2023/02/23 18:52:29;;;;;;;2.53;1.60;;;7.80;99.90;;;;;;8130684;29;20024;-78
2023/02/23 18:56:30;;;;;;;7.20;4.03;;;7.50;99.90;;;;;;8140553;29;21168;-78
2023/02/23 19:00:36;;;;;;;3.40;1.90;;;7.10;99.90;;;;;;8129908;29;20050;-78
2023/02/23 19:04:39;;;;;;;4.78;2.15;;;7.30;99.90;;;;;;8132344;29;20059;-78
2023/02/23 19:08:40;;;;;;;4.93;2.00;;;7.20;99.90;;;;;;8133201;29;20378;-77
2023/02/23 19:12:41;;;;;;;3.42;1.80;;;7.20;99.90;;;;;;8136979;29;20076;-79
2023/02/23 19:16:43;;;;;;;3.40;2.25;;;7.10;99.90;;;;;;8136830;29;20561;-79
2023/02/23 19:20:43;;;;;;;5.35;2.92;;;7.00;99.90;;;;;;8136328;29;20107;-79
2023/02/23 19:24:44;;;;;;;4.72;2.75;;;6.90;99.90;;;;;;8132828;29;20036;-79
2023/02/23 19:28:47;;;;;;;5.22;2.50;;;6.80;99.90;;;;;;8133945;29;20512;-79
2023/02/23 19:32:48;;;;;;;4.25;2.65;;;6.70;99.90;;;;;;8134795;29;20036;-79
2023/02/23 19:36:48;;;;;;;4.85;3.33;;;6.80;99.90;;;;;;8135270;29;20043;-79
2023/02/23 19:40:49;;;;;;;8.05;3.45;;;6.70;99.90;;;;;;8135828;29;20028;-78
2023/02/23 19:44:50;;;;;;;11.15;5.72;;;6.60;99.90;;;;;;8133837;29;20036;-79
2023/02/23 19:48:52;;;;;;;9.82;5.35;;;6.60;99.90;;;;;;8131935;29;20028;-79
2023/02/23 19:52:52;;;;;;;6.05;3.30;;;6.80;99.90;;;;;;8147056;29;20024;-78
2023/02/23 19:56:53;;;;;;;7.03;3.67;;;6.90;99.90;;;;;;8128575;29;20064;-79
2023/02/23 20:00:56;;;;;;;15.18;6.93;;;6.70;99.90;;;;;;8133587;29;20041;-78
2023/02/23 20:04:56;;;;;;;18.83;9.50;;;7.20;99.90;;;;;;8131938;29;20031;-79
2023/02/23 20:08:58;;;;;;;23.80;12.02;;;7.20;99.90;;;;;;8134017;29;20088;-78
2023/02/23 20:12:59;;;;;;;25.95;11.73;;;7.00;99.90;;;;;;8134009;29;20032;-79
2023/02/23 20:17:00;;;;;;;13.88;7.00;;;6.80;99.90;;;;;;8133256;29;20024;-79
2023/02/23 20:21:21;;;;;;;10.45;5.32;;;6.70;99.90;;;;;;8134498;29;20075;-78
2023/02/23 20:25:22;;;;;;;7.15;4.20;;;6.70;99.90;;;;;;8135676;29;20469;-79
2023/02/23 20:29:26;;;;;;;6.07;3.65;;;6.70;99.90;;;;;;8133222;29;20382;-77
2023/02/23 20:33:28;;;;;;;7.00;3.60;;;6.70;99.90;;;;;;8132222;29;20404;-79
2023/02/23 20:37:29;;;;;;;9.75;3.95;;;6.70;99.90;;;;;;8130293;29;20071;-78
2023/02/23 20:41:30;;;;;;;5.88;3.22;;;6.60;99.90;;;;;;8131866;29;20025;-79
2023/02/23 20:45:30;;;;;;;5.82;3.08;;;6.60;99.90;;;;;;8134477;29;20613;-79
2023/02/23 20:49:31;;;;;;;8.43;3.55;;;6.60;99.90;;;;;;8129543;29;20028;-78
2023/02/23 20:53:31;;;;;;;6.55;3.33;;;6.40;99.90;;;;;;8133007;29;20062;-78
2023/02/23 20:57:33;;;;;;;7.80;4.03;;;6.40;99.90;;;;;;8136411;29;20070;-79
2023/02/23 21:01:34;;;;;;;9.00;4.32;;;6.40;99.90;;;;;;8133032;29;20564;-79
2023/02/23 21:05:39;;;;;;;9.43;4.70;;;6.40;99.90;;;;;;8132043;29;20028;-79
2023/02/23 21:09:40;;;;;;;9.25;5.47;;;6.30;99.90;;;;;;8134606;29;20050;-78
2023/02/23 21:13:40;;;;;;;6.95;4.13;;;6.40;99.90;;;;;;8135244;29;20028;-79
2023/02/23 21:17:41;;;;;;;9.93;4.45;;;6.40;99.90;;;;;;8135200;29;20556;-78
2023/02/23 21:21:44;;;;;;;9.00;5.30;;;6.40;99.90;;;;;;8132014;29;20472;-80
2023/02/23 21:25:44;;;;;;;19.67;9.30;;;6.40;99.90;;;;;;8134605;29;20434;-79
2023/02/23 21:29:45;;;;;;;13.45;6.60;;;6.70;99.90;;;;;;8135445;29;20040;-80
2023/02/23 21:33:46;;;;;;;16.98;8.20;;;6.50;99.90;;;;;;8135434;29;20036;-78
2023/02/23 21:37:49;;;;;;;11.38;6.18;;;6.40;99.90;;;;;;8134542;29;20401;-78
2023/02/23 21:41:49;;;;;;;10.95;6.88;;;6.30;99.90;;;;;;8133556;29;20117;-77
2023/02/23 21:45:50;;;;;;;13.68;6.70;;;6.20;99.90;;;;;;8133325;29;20036;-78
2023/02/23 21:49:50;;;;;;;10.43;5.68;;;6.10;99.90;;;;;;8135455;29;20052;-78
2023/02/23 21:53:56;;;;;;;8.98;4.00;;;6.10;99.90;;;;;;8132444;29;20027;-79
2023/02/23 21:57:57;;;;;;;9.95;3.63;;;6.00;99.90;;;;;;8134062;29;20028;-78
2023/02/23 22:01:57;;;;;;;8.05;3.88;;;6.10;99.90;;;;;;8134333;29;20056;-78
2023/02/23 22:06:00;;;;;;;7.13;4.35;;;6.00;99.90;;;;;;8133613;29;20024;-79
2023/02/23 22:10:01;;;;;;;14.60;7.03;;;6.00;99.90;;;;;;8135289;29;20460;-79
2023/02/23 22:14:04;;;;;;;10.38;4.50;;;6.10;99.90;;;;;;8134143;29;20028;-79
2023/02/23 22:18:04;;;;;;;9.85;4.50;;;6.00;99.90;;;;;;8133905;29;20115;-79
2023/02/23 22:22:05;;;;;;;10.02;4.65;;;5.80;99.90;;;;;;8133620;29;20080;-79
2023/02/23 22:26:06;;;;;;;7.20;3.78;;;5.60;99.90;;;;;;8133407;29;20572;-78
2023/02/23 22:30:08;;;;;;;8.32;5.07;;;5.50;99.90;;;;;;8134095;29;20024;-79
2023/02/23 22:34:08;;;;;;;10.18;6.07;;;5.40;99.90;;;;;;8133173;29;20036;-79
2023/02/23 22:38:09;;;;;;;13.18;6.35;;;5.40;99.90;;;;;;8133564;29;20036;-78